Time;durP1;ratioP1;P1;durP2;ratioP2;P2;SDS_P1;SDS_P2;PMS_P1;PMS_P2;Temp;Humidity;BMP_temperature;BMP_pressure;BME280_temperature;BME280_humidity;BME280_pressure;Samples;Min_cycle;Max_cycle;Signal;HPM_P1;HPM_P2
2021/12/04 00:00:08;;;;;;;16.93;12.98;;;;;;;0.21;75.70;99925.95;1677533;84;21931;-66
2021/12/04 00:02:37;;;;;;;16.45;13.00;;;;;;;0.18;75.61;99927.37;1674044;84;20954;-66
2021/12/04 00:05:05;;;;;;;15.23;11.60;;;;;;;0.14;75.57;99927.97;1657446;85;20965;-65
2021/12/04 00:07:34;;;;;;;17.45;12.80;;;;;;;0.10;75.53;99936.81;1687923;84;21464;-66
2021/12/04 00:10:03;;;;;;;16.87;11.78;;;;;;;0.08;75.56;99936.02;1674361;84;21031;-66
2021/12/04 00:12:32;;;;;;;16.73;12.40;;;;;;;0.06;75.56;99930.50;1659037;86;22529;-65
2021/12/04 00:14:59;;;;;;;16.77;11.68;;;;;;;0.05;75.56;99934.02;1678706;84;21040;-65
2021/12/04 00:17:26;;;;;;;14.45;11.48;;;;;;;0.03;75.58;99932.79;1684920;84;20968;-65
2021/12/04 00:19:54;;;;;;;15.35;10.63;;;;;;;0.01;75.61;99937.21;1673848;84;21064;-65
2021/12/04 00:22:20;;;;;;;15.00;11.03;;;;;;;-0.01;75.57;99937.70;1691968;84;20997;-65
2021/12/04 00:24:47;;;;;;;16.70;12.10;;;;;;;-0.06;75.60;99935.32;1680563;84;21863;-65
2021/12/04 00:27:13;;;;;;;15.20;11.50;;;;;;;-0.08;75.56;99941.05;1701728;84;20961;-65
2021/12/04 00:29:39;;;;;;;15.25;12.00;;;;;;;-0.08;75.61;99946.69;1698281;84;20978;-65
2021/12/04 00:32:15;;;;;;;16.90;11.83;;;;;;;-0.08;75.57;99945.39;1714914;83;20961;-65
2021/12/04 00:34:42;;;;;;;13.78;10.10;;;;;;;-0.08;75.57;99942.34;1724736;83;21023;-65
2021/12/04 00:50:35;;;;;;;16.32;12.55;;;;;;;-0.21;75.61;99949.39;1715742;83;21868;-65
2021/12/04 00:53:02;;;;;;;19.10;13.60;;;;;;;-0.21;75.55;99953.28;1724578;83;20998;-65
2021/12/04 00:55:29;;;;;;;17.55;13.22;;;;;;;-0.24;75.47;99952.97;1716292;83;21104;-65
2021/12/04 00:57:55;;;;;;;17.20;12.43;;;;;;;-0.28;75.48;99955.31;1704762;83;21018;-65
2021/12/04 01:00:22;;;;;;;18.23;12.93;;;;;;;-0.28;75.48;99955.77;1703385;82;21437;-66
2021/12/04 01:02:48;;;;;;;19.98;13.35;;;;;;;-0.28;75.50;99957.91;1725279;83;21883;-65
2021/12/04 01:05:15;;;;;;;19.25;13.05;;;;;;;-0.28;75.47;99960.51;1724888;83;20951;-65
2021/12/04 01:07:42;;;;;;;19.70;13.50;;;;;;;-0.30;75.43;99961.84;1713523;83;20951;-65
2021/12/04 01:10:10;;;;;;;15.03;11.75;;;;;;;-0.30;75.43;99967.03;1724623;83;21018;-65
2021/12/04 01:12:38;;;;;;;16.50;11.30;;;;;;;-0.31;75.38;99969.23;1725438;82;20950;-65
2021/12/04 01:15:06;;;;;;;18.90;13.05;;;;;;;-0.36;75.35;99969.89;1702995;82;21905;-65
2021/12/04 01:17:34;;;;;;;22.58;15.60;;;;;;;-0.40;75.36;99968.77;1720511;81;20947;-65
2021/12/04 01:20:01;;;;;;;21.62;14.93;;;;;;;-0.43;75.39;99967.61;1722828;83;21054;-65
2021/12/04 01:22:27;;;;;;;20.23;13.98;;;;;;;-0.43;75.37;99963.72;1701956;83;20971;-65
2021/12/04 01:24:55;;;;;;;19.95;14.40;;;;;;;-0.45;75.36;99965.54;1697242;83;20976;-65
2021/12/04 01:27:23;;;;;;;20.08;13.78;;;;;;;-0.48;75.28;99971.70;1716199;83;21829;-65
2021/12/04 01:29:49;;;;;;;18.95;12.73;;;;;;;-0.50;75.25;99977.38;1707363;82;21008;-66
2021/12/04 01:32:15;;;;;;;16.30;12.50;;;;;;;-0.51;75.23;99974.86;1716534;82;21018;-65
2021/12/04 01:34:42;;;;;;;17.75;13.40;;;;;;;-0.54;75.18;99969.34;1700836;84;21011;-65
2021/12/04 01:37:08;;;;;;;20.62;13.78;;;;;;;-0.52;75.19;99983.09;1724898;81;21460;-65
2021/12/04 01:39:35;;;;;;;20.70;13.48;;;;;;;-0.52;75.17;99982.25;1700858;84;21834;-65
2021/12/04 01:42:02;;;;;;;19.77;14.40;;;;;;;-0.53;75.10;99987.05;1733737;81;20994;-66
2021/12/04 01:44:28;;;;;;;19.42;13.58;;;;;;;-0.59;75.04;99982.48;1740930;82;21094;-66
2021/12/04 01:46:58;;;;;;;20.40;14.35;;;;;;;-0.60;75.03;99988.58;1738028;82;22700;-65
2021/12/04 01:49:24;;;;;;;21.50;14.87;;;;;;;-0.64;75.04;99987.03;1740514;82;20970;-65
2021/12/04 01:51:51;;;;;;;18.60;13.80;;;;;;;-0.66;75.05;99975.88;1727333;82;21772;-65
2021/12/04 01:54:17;;;;;;;19.48;13.65;;;;;;;-0.69;75.07;99978.56;1741032;82;20987;-65
2021/12/04 01:56:43;;;;;;;17.42;12.07;;;;;;;-0.70;75.06;99986.41;1737103;82;21022;-65
2021/12/04 01:59:10;;;;;;;17.85;13.30;;;;;;;-0.71;75.03;99986.86;1739652;82;21070;-66
2021/12/04 02:01:36;;;;;;;16.90;13.03;;;;;;;-0.73;75.02;99986.55;1724370;83;20996;-66
2021/12/04 02:04:06;;;;;;;18.30;13.43;;;;;;;-0.74;75.04;99996.08;1702501;83;21856;-65
2021/12/04 02:06:32;;;;;;;17.85;13.60;;;;;;;-0.75;75.02;99993.55;1716531;83;21497;-66
2021/12/04 02:08:59;;;;;;;18.20;13.00;;;;;;;-0.75;75.02;100000.03;1727095;83;21064;-65
2021/12/04 02:11:25;;;;;;;16.07;12.10;;;;;;;-0.75;74.95;99998.73;1704112;83;21395;-66
2021/12/04 02:13:51;;;;;;;14.73;11.10;;;;;;;-0.76;74.90;100004.38;1711447;83;20987;-65
2021/12/04 02:16:20;;;;;;;18.57;13.22;;;;;;;-0.76;74.84;100003.08;1729736;83;21837;-65
2021/12/04 02:18:47;;;;;;;17.67;13.78;;;;;;;-0.77;74.82;100001.81;1714381;83;20956;-66
2021/12/04 02:21:14;;;;;;;18.17;13.18;;;;;;;-0.79;74.78;100003.17;1708922;83;20964;-65
2021/12/04 02:23:40;;;;;;;17.82;12.93;;;;;;;-0.77;74.75;100003.11;1717026;83;21035;-65
2021/12/04 02:26:07;;;;;;;17.02;12.70;;;;;;;-0.79;74.71;100001.03;1704624;83;21524;-65
2021/12/04 02:28:33;;;;;;;21.40;13.88;;;;;;;-0.82;74.70;100006.34;1727009;83;21830;-66
2021/12/04 02:31:00;;;;;;;22.42;14.03;;;;;;;-0.84;74.65;100009.45;1719568;83;21055;-66
2021/12/04 02:33:26;;;;;;;17.35;12.40;;;;;;;-0.85;74.68;99999.54;1680195;84;21013;-66
2021/12/04 02:35:54;;;;;;;15.30;11.80;;;;;;;-0.85;74.60;100003.43;1681895;84;21017;-65
2021/12/04 02:38:23;;;;;;;16.60;13.53;;;;;;;-0.87;74.60;100006.09;1692245;84;21647;-66
2021/12/04 02:40:50;;;;;;;17.60;11.88;;;;;;;-0.89;74.54;100009.16;1667771;84;21847;-65
2021/12/04 02:43:17;;;;;;;20.00;13.72;;;;;;;-0.90;74.53;100009.23;1658738;86;20954;-65
2021/12/04 02:45:44;;;;;;;18.05;13.10;;;;;;;-0.93;74.49;100005.02;1696989;84;21417;-65
2021/12/04 02:48:11;;;;;;;18.25;13.13;;;;;;;-0.94;74.50;100010.26;1702460;84;21060;-66
2021/12/04 02:50:38;;;;;;;16.65;13.00;;;;;;;-0.93;74.48;100014.54;1696617;83;21052;-65
2021/12/04 02:53:05;;;;;;;18.15;12.95;;;;;;;-0.94;74.42;100008.97;1683577;84;22544;-66
2021/12/04 02:55:32;;;;;;;18.32;13.22;;;;;;;-0.97;74.39;100008.61;1677979;84;21013;-65
2021/12/04 02:57:59;;;;;;;18.45;13.32;;;;;;;-0.99;74.35;100014.31;1681310;83;21089;-65
2021/12/04 03:00:26;;;;;;;17.00;13.48;;;;;;;-0.98;74.32;100015.15;1700966;84;21060;-66
2021/12/04 03:02:54;;;;;;;18.73;14.03;;;;;;;-1.01;74.34;100024.34;1698515;84;21001;-65
2021/12/04 03:05:24;;;;;;;18.65;13.80;;;;;;;-0.99;74.30;100018.65;1702122;84;21866;-66
2021/12/04 03:07:52;;;;;;;18.50;13.18;;;;;;;-0.98;74.23;100028.11;1703519;84;20993;-65
2021/12/04 03:10:19;;;;;;;19.40;14.25;;;;;;;-0.97;74.17;100022.86;1679997;83;21064;-65
2021/12/04 03:12:48;;;;;;;19.52;13.98;;;;;;;-0.99;74.07;100022.53;1699429;84;20970;-65
2021/12/04 03:15:15;;;;;;;17.80;13.68;;;;;;;-1.01;73.98;100021.75;1671505;83;21623;-65
2021/12/04 03:17:42;;;;;;;16.97;12.68;;;;;;;-1.03;73.91;100024.41;1696393;84;22642;-65
2021/12/04 03:20:11;;;;;;;17.25;13.25;;;;;;;-1.06;73.84;100021.94;1697761;84;21013;-65
2021/12/04 03:22:40;;;;;;;18.80;13.75;;;;;;;-1.08;73.79;100018.99;1695550;84;20958;-65
2021/12/04 03:25:08;;;;;;;18.70;14.10;;;;;;;-1.11;73.74;100021.70;1704201;84;20961;-65
2021/12/04 03:27:37;;;;;;;22.17;15.18;;;;;;;-1.13;73.74;100028.70;1694255;83;20969;-66
2021/12/04 03:30:12;;;;;;;22.75;15.83;;;;;;;-1.18;73.76;100024.52;1697037;84;21817;-65
2021/12/04 03:35:25;;;;;;;24.35;16.90;;;;;;;-1.22;73.68;100025.54;1676577;83;21048;-65
2021/12/04 03:43:19;;;;;;;19.55;14.85;;;;;;;-1.29;73.77;100033.59;1701724;83;21789;-65
2021/12/04 03:45:53;;;;;;;22.65;15.30;;;;;;;-1.32;73.77;100035.84;1703650;83;21373;-65
2021/12/04 03:48:49;;;;;;;32.78;21.90;;;;;;;-1.33;73.79;100039.34;1699655;84;20997;-65
2021/12/04 03:50:56;;;;;;;127.27;81.25;;;;;;;-1.33;73.75;100035.45;1673252;84;21005;-65
2021/12/04 03:53:23;;;;;;;79.17;51.70;;;;;;;-1.36;73.64;100037.29;1679273;84;21091;-66
2021/12/04 03:55:50;;;;;;;68.85;44.40;;;;;;;-1.42;73.71;100039.67;1703513;84;21841;-65
2021/12/04 03:58:18;;;;;;;68.95;46.30;;;;;;;-1.42;73.70;100046.59;1702009;84;20939;-65
2021/12/04 04:00:45;;;;;;;113.65;72.35;;;;;;;-1.45;73.64;100041.92;1702477;84;21542;-65
2021/12/04 04:03:12;;;;;;;65.92;43.90;;;;;;;-1.47;73.64;100038.97;1704325;83;21423;-65
2021/12/04 04:05:38;;;;;;;59.00;39.92;;;;;;;-1.47;73.66;100049.33;1673572;83;21452;-65
2021/12/04 04:08:05;;;;;;;44.77;30.40;;;;;;;-1.49;73.68;100054.57;1658841;86;21842;-65
2021/12/04 04:10:32;;;;;;;45.60;30.23;;;;;;;-1.50;73.72;100046.41;1687931;84;20961;-65
2021/12/04 04:12:59;;;;;;;36.93;25.43;;;;;;;-1.48;73.73;100055.42;1702791;84;21009;-65
2021/12/04 04:15:26;;;;;;;30.08;19.98;;;;;;;-1.49;73.66;100057.61;1689044;84;20987;-65
2021/12/04 04:17:52;;;;;;;25.85;19.57;;;;;;;-1.52;73.64;100053.84;1670652;85;21528;-65
2021/12/04 04:20:20;;;;;;;30.77;20.95;;;;;;;-1.54;73.63;100045.29;1691004;84;21804;-65
2021/12/04 04:22:49;;;;;;;28.75;19.50;;;;;;;-1.55;73.64;100043.13;1657601;85;21100;-65
2021/12/04 04:25:16;;;;;;;28.00;19.32;;;;;;;-1.55;73.63;100050.89;1679685;84;21048;-65
2021/12/04 04:27:45;;;;;;;34.08;22.55;;;;;;;-1.58;73.61;100044.98;1700325;84;20958;-65
2021/12/04 04:30:16;;;;;;;34.03;23.75;;;;;;;-1.62;73.60;100040.83;1686950;83;20969;-67
2021/12/04 04:32:43;;;;;;;43.05;33.42;;;;;;;-1.65;73.59;100048.67;1696291;82;21860;-65
2021/12/04 04:35:19;;;;;;;50.98;38.30;;;;;;;-1.70;73.58;100046.27;1703188;84;21542;-65
2021/12/04 04:38:08;;;;;;;51.70;35.30;;;;;;;-1.72;73.56;100040.75;1705577;82;20986;-65
2021/12/04 05:02:28;;;;;;;25.72;18.00;;;;;;;-1.85;73.96;100054.53;1720374;82;20952;-67
2021/12/04 05:12:57;;;;;;;21.70;16.17;;;;;;;-1.89;73.93;100068.49;1712116;82;21863;-67
2021/12/04 05:15:43;;;;;;;26.15;16.70;;;;;;;-1.89;73.89;100064.61;1716223;82;21024;-67
2021/12/04 05:20:52;;;;;;;20.08;15.30;;;;;;;-1.94;73.85;100072.95;1722837;82;20984;-68
2021/12/04 05:23:11;;;;;;;23.42;17.02;;;;;;;-1.96;73.86;100074.31;1725882;82;21055;-67
2021/12/04 05:25:38;;;;;;;26.65;19.10;;;;;;;-2.00;73.90;100075.32;1711970;82;21954;-67
2021/12/04 05:28:06;;;;;;;21.73;15.93;;;;;;;-2.06;73.97;100091.87;1731617;82;20940;-67
2021/12/04 05:30:33;;;;;;;24.57;16.65;;;;;;;-2.10;74.05;100087.71;1726370;82;21038;-67
2021/12/04 05:33:00;;;;;;;25.62;17.02;;;;;;;-2.11;74.15;100089.91;1697886;84;21009;-67
2021/12/04 05:35:27;;;;;;;23.18;16.75;;;;;;;-2.08;74.18;100096.27;1708017;83;21063;-68
2021/12/04 05:37:53;;;;;;;25.35;16.80;;;;;;;-2.07;74.13;100106.16;1700425;83;21978;-68
2021/12/04 05:40:19;;;;;;;25.43;18.73;;;;;;;-2.07;74.09;100110.05;1696097;83;21057;-67
2021/12/04 05:42:46;;;;;;;26.55;19.27;;;;;;;-2.09;73.99;100107.97;1702928;83;20961;-67
2021/12/04 05:45:24;;;;;;;28.57;19.55;;;;;;;-2.14;74.00;100110.67;1711086;83;21033;-67
2021/12/04 05:47:48;;;;;;;31.25;20.15;;;;;;;-2.13;74.01;100115.41;1688837;83;21013;-67
2021/12/04 05:55:28;;;;;;;37.55;23.38;;;;;;;-2.18;74.01;100096.61;1704746;83;20938;-67
2021/12/04 05:57:54;;;;;;;34.27;22.90;;;;;;;-2.18;74.02;100101.34;1693759;83;21348;-67
2021/12/04 06:00:23;;;;;;;31.17;20.82;;;;;;;-2.18;74.00;100103.08;1703112;83;21028;-69
2021/12/04 06:02:50;;;;;;;31.65;19.85;;;;;;;-2.20;74.01;100107.46;1710194;83;21780;-67
2021/12/04 06:05:20;;;;;;;35.80;21.95;;;;;;;-2.19;74.11;100111.73;1673395;83;20980;-67
2021/12/04 06:07:46;;;;;;;37.08;23.18;;;;;;;-2.18;74.12;100109.09;1706094;83;21052;-67
2021/12/04 06:10:13;;;;;;;33.18;22.95;;;;;;;-2.18;74.12;100116.86;1669562;85;20999;-67
2021/12/04 06:12:39;;;;;;;37.05;23.80;;;;;;;-2.17;74.18;100113.82;1697665;84;20993;-67
2021/12/04 06:15:09;;;;;;;34.53;24.05;;;;;;;-2.14;74.23;100113.72;1701780;83;21795;-67
2021/12/04 06:17:36;;;;;;;33.40;21.55;;;;;;;-2.12;74.24;100110.66;1695420;83;20938;-67
2021/12/04 06:22:49;;;;;;;28.35;19.57;;;;;;;-2.09;74.29;100116.57;1691440;83;21032;-67
2021/12/04 06:25:24;;;;;;;25.37;17.35;;;;;;;-2.08;74.27;100116.97;1683720;84;20989;-67
2021/12/04 06:27:46;;;;;;;28.57;20.20;;;;;;;-2.10;74.32;100113.59;1675780;84;21808;-67
2021/12/04 06:30:15;;;;;;;29.57;19.92;;;;;;;-2.10;74.41;100114.03;1673432;85;21284;-67
2021/12/04 06:32:42;;;;;;;27.10;18.67;;;;;;;-2.08;74.42;100116.13;1680712;84;21057;-68
2021/12/04 06:35:11;;;;;;;28.32;18.98;;;;;;;-2.08;74.43;100114.38;1679691;83;21607;-68
2021/12/04 06:37:37;;;;;;;36.25;22.58;;;;;;;-2.04;74.48;100124.17;1697933;83;21005;-69
2021/12/04 06:40:06;;;;;;;48.02;27.58;;;;;;;-2.02;74.58;100123.25;1673926;84;21903;-68
2021/12/04 06:42:33;;;;;;;42.45;27.30;;;;;;;-1.96;74.67;100129.95;1676103;85;21455;-66
2021/12/04 06:45:00;;;;;;;38.08;23.83;;;;;;;-1.93;74.76;100126.00;1692906;84;21045;-67
2021/12/04 06:47:27;;;;;;;31.97;20.10;;;;;;;-1.87;74.89;100124.48;1695509;84;20998;-67
2021/12/04 06:50:00;;;;;;;34.30;20.60;;;;;;;-1.80;74.99;100121.26;1689340;84;21413;-66
2021/12/04 06:52:28;;;;;;;35.90;21.85;;;;;;;-1.76;75.01;100124.97;1693616;84;21855;-66
2021/12/04 06:54:57;;;;;;;42.53;23.87;;;;;;;-1.71;75.07;100125.29;1694229;83;21077;-67
2021/12/04 06:57:23;;;;;;;33.08;19.62;;;;;;;-1.66;75.08;100129.84;1683864;84;21052;-66
2021/12/04 06:59:52;;;;;;;34.43;22.20;;;;;;;-1.61;75.13;100123.63;1665161;84;21084;-67
2021/12/04 07:02:19;;;;;;;37.58;23.38;;;;;;;-1.55;75.13;100125.16;1685843;83;21067;-66
2021/12/04 07:04:46;;;;;;;31.40;19.67;;;;;;;-1.51;75.11;100122.88;1689822;84;21833;-66
2021/12/04 07:07:13;;;;;;;33.67;21.45;;;;;;;-1.47;75.12;100127.88;1703893;84;20977;-65
2021/12/04 07:09:39;;;;;;;35.45;20.55;;;;;;;-1.43;75.08;100131.23;1678442;84;21543;-67
2021/12/04 07:12:08;;;;;;;40.73;26.17;;;;;;;-1.38;75.12;100134.50;1684157;84;21015;-67
2021/12/04 07:14:34;;;;;;;38.60;24.60;;;;;;;-1.33;75.14;100139.09;1691562;84;20953;-67
2021/12/04 07:19:43;;;;;;;34.92;20.85;;;;;;;-1.20;75.20;100139.05;1698815;83;20949;-67
2021/12/04 07:22:11;;;;;;;26.55;17.77;;;;;;;-1.16;75.12;100135.47;1718045;82;21054;-68
2021/12/04 07:24:37;;;;;;;28.40;19.85;;;;;;;-1.10;75.08;100136.13;1706950;84;21011;-67
2021/12/04 07:27:06;;;;;;;30.70;21.70;;;;;;;-1.07;75.01;100134.72;1708121;83;21437;-67
2021/12/04 07:29:33;;;;;;;28.27;19.45;;;;;;;-1.04;74.93;100139.81;1719363;81;21871;-67
2021/12/04 07:31:59;;;;;;;25.88;18.55;;;;;;;-1.00;74.87;100136.20;1718551;82;21052;-65
2021/12/04 07:34:25;;;;;;;24.98;17.67;;;;;;;-0.97;74.74;100137.38;1679501;85;21388;-67
2021/12/04 07:36:52;;;;;;;23.47;16.40;;;;;;;-0.97;74.67;100138.22;1660659;86;20970;-66
2021/12/04 07:39:18;;;;;;;28.45;17.55;;;;;;;-0.92;74.71;100137.62;1659498;86;21033;-66
2021/12/04 07:41:46;;;;;;;24.95;16.97;;;;;;;-0.88;74.59;100138.34;1660739;85;21799;-67
2021/12/04 07:44:12;;;;;;;27.67;17.62;;;;;;;-0.82;74.56;100147.20;1659913;84;20967;-66
2021/12/04 07:46:40;;;;;;;24.50;17.35;;;;;;;-0.77;74.55;100144.43;1679947;83;21063;-66
2021/12/04 07:49:06;;;;;;;26.33;16.37;;;;;;;-0.72;74.44;100153.75;1677919;85;21048;-66
2021/12/04 07:51:32;;;;;;;26.35;17.77;;;;;;;-0.68;74.33;100151.42;1664071;85;21071;-65
2021/12/04 07:53:59;;;;;;;23.38;17.67;;;;;;;-0.65;74.27;100146.14;1642318;85;21845;-66
2021/12/04 07:56:26;;;;;;;26.68;17.98;;;;;;;-0.58;74.28;100141.55;1671422;85;21066;-66
2021/12/04 07:58:53;;;;;;;26.95;18.85;;;;;;;-0.50;74.22;100141.27;1682362;83;21443;-65
2021/12/04 08:01:19;;;;;;;29.32;20.32;;;;;;;-0.46;74.09;100139.81;1681167;85;21079;-65
2021/12/04 08:03:46;;;;;;;32.28;22.20;;;;;;;-0.43;73.96;100146.63;1683044;83;21029;-66
2021/12/04 08:06:12;;;;;;;32.42;22.17;;;;;;;-0.41;73.92;100144.81;1675905;85;21827;-66
2021/12/04 08:08:41;;;;;;;31.00;20.37;;;;;;;-0.36;73.83;100141.16;1686931;84;21143;-65
2021/12/04 08:11:07;;;;;;;31.27;20.60;;;;;;;-0.30;73.86;100138.30;1689192;84;21012;-66
2021/12/04 08:13:33;;;;;;;32.83;21.85;;;;;;;-0.24;73.75;100137.23;1685404;84;21009;-66
2021/12/04 08:16:00;;;;;;;32.50;22.67;;;;;;;-0.19;73.62;100133.15;1694824;83;21524;-66
2021/12/04 08:18:26;;;;;;;30.40;21.05;;;;;;;-0.15;73.62;100132.14;1693073;82;22423;-65
2021/12/04 08:20:53;;;;;;;27.42;19.00;;;;;;;-0.07;73.58;100129.64;1722598;81;21015;-67
2021/12/04 08:23:20;;;;;;;37.03;22.80;;;;;;;0.00;73.58;100134.14;1727662;81;21067;-68
2021/12/04 08:25:47;;;;;;;30.52;21.73;;;;;;;0.08;73.54;100128.17;1726654;81;21054;-67
2021/12/04 08:28:14;;;;;;;29.72;20.55;;;;;;;0.18;73.57;100121.69;1717718;83;21002;-64
2021/12/04 08:30:40;;;;;;;31.35;22.32;;;;;;;0.29;73.42;100121.28;1761580;80;21895;-65
2021/12/04 08:33:11;;;;;;;33.70;22.10;;;;;;;0.35;73.30;100111.91;1770927;81;21435;-67
2021/12/04 08:35:41;;;;;;;28.15;19.23;;;;;;;0.45;73.16;100116.27;1745118;81;21080;-68
2021/12/04 08:38:10;;;;;;;25.00;17.50;;;;;;;0.52;72.97;100112.52;1750681;80;21455;-66
2021/12/04 08:40:39;;;;;;;24.92;16.07;;;;;;;0.60;72.97;100104.40;1751805;80;21015;-66
2021/12/04 08:43:06;;;;;;;18.87;13.88;;;;;;;0.71;72.78;100108.67;1744950;80;21791;-68
2021/12/04 08:45:35;;;;;;;18.92;13.72;;;;;;;0.78;72.46;100104.45;1735676;82;21475;-68
2021/12/04 08:48:02;;;;;;;16.70;12.37;;;;;;;0.86;72.22;100098.44;1735728;82;21044;-69
2021/12/04 08:50:30;;;;;;;17.77;12.95;;;;;;;0.98;72.11;100093.17;1749247;80;21405;-67
2021/12/04 08:52:57;;;;;;;18.45;13.05;;;;;;;1.11;71.86;100094.77;1770654;80;21059;-68
2021/12/04 08:55:24;;;;;;;21.85;16.00;;;;;;;1.23;71.58;100092.90;1711934;81;21827;-67
2021/12/04 08:57:51;;;;;;;29.02;21.35;;;;;;;1.32;70.98;100096.38;1698393;83;21530;-67
2021/12/04 09:00:23;;;;;;;35.03;24.07;;;;;;;1.36;70.30;100092.75;1728130;82;20952;-68
2021/12/04 09:02:50;;;;;;;34.27;23.70;;;;;;;1.41;70.00;100093.81;1732151;81;21028;-68
2021/12/04 09:05:18;;;;;;;31.33;21.57;;;;;;;1.51;70.11;100083.36;1727865;83;21040;-68
2021/12/04 09:07:44;;;;;;;30.88;22.70;;;;;;;1.63;69.78;100077.58;1703889;82;21814;-68
2021/12/04 09:10:11;;;;;;;26.07;20.02;;;;;;;1.75;69.53;100071.42;1722018;82;21017;-68
2021/12/04 09:12:38;;;;;;;25.60;18.25;;;;;;;1.88;69.55;100061.63;1727879;82;21447;-68
2021/12/04 09:15:07;;;;;;;28.92;21.62;;;;;;;2.03;69.55;100053.97;1722945;81;21479;-67
2021/12/04 09:17:34;;;;;;;32.13;24.30;;;;;;;2.20;69.46;100054.83;1730290;82;21095;-66
2021/12/04 09:20:01;;;;;;;38.02;25.52;;;;;;;2.40;69.09;100058.19;1704771;82;21817;-66
2021/12/04 09:22:29;;;;;;;33.15;25.08;;;;;;;2.53;68.73;100061.88;1736165;82;21044;-67
2021/12/04 09:24:59;;;;;;;29.77;21.87;;;;;;;2.63;68.08;100052.66;1731324;82;22152;-67
2021/12/04 10:34:28;;;;;;;22.62;16.52;;;;;;;4.30;60.38;100011.11;1703850;83;21016;-68
2021/12/04 10:36:56;;;;;;;25.37;16.73;;;;;;;4.22;60.38;100001.57;1706190;82;21007;-67
2021/12/04 10:39:22;;;;;;;22.48;16.05;;;;;;;4.16;60.52;99998.50;1705282;83;22545;-67
2021/12/04 10:41:49;;;;;;;21.97;16.50;;;;;;;4.18;60.58;99994.86;1671135;83;20993;-68
2021/12/04 10:44:22;;;;;;;22.82;16.15;;;;;;;4.30;61.00;99998.51;1646879;84;21072;-67
2021/12/04 10:47:03;;;;;;;15.83;12.75;;;;;;;4.44;60.60;99996.36;1701926;84;21049;-69
2021/12/04 10:52:36;;;;;;;22.80;15.85;;;;;;;4.70;60.38;99992.18;1699111;82;22210;-67
2021/12/04 10:55:33;;;;;;;24.07;17.17;;;;;;;4.76;60.57;99982.19;1689747;83;21052;-70
2021/12/04 11:01:10;;;;;;;19.40;15.38;;;;;;;5.05;60.31;99980.38;1686195;85;21012;-67
2021/12/04 11:03:45;;;;;;;24.07;16.75;;;;;;;5.13;59.53;99978.13;1685362;84;21062;-68
2021/12/04 11:18:41;;;;;;;18.57;14.80;;;;;;;5.30;59.49;99978.80;1686342;83;21024;-68
2021/12/04 11:22:29;;;;;;;16.65;13.53;;;;;;;6.09;60.18;99976.73;1718328;83;21475;-68
2021/12/04 11:46:24;;;;;;;22.58;15.28;;;;;;;6.08;57.52;99958.86;1693412;83;22888;-68
2021/12/04 11:48:49;;;;;;;21.80;15.08;;;;;;;6.08;57.68;99956.67;1687248;84;21486;-68
2021/12/04 11:51:22;;;;;;;17.82;14.07;;;;;;;6.23;57.82;99959.11;1660675;86;20989;-68
2021/12/04 11:53:51;;;;;;;19.87;14.75;;;;;;;6.35;57.02;99957.91;1719201;83;27380;-68
2021/12/04 11:56:27;;;;;;;23.60;15.43;;;;;;;6.43;56.94;99952.97;1697875;84;21032;-68
2021/12/04 11:58:54;;;;;;;20.88;15.20;;;;;;;6.50;56.74;99953.77;1698301;84;21822;-69
2021/12/04 12:01:31;;;;;;;22.27;17.73;;;;;;;6.56;55.67;99941.55;1661782;85;20982;-68
2021/12/04 12:04:08;;;;;;;23.12;20.65;;;;;;;6.50;55.38;99948.98;1654911;86;21539;-68
2021/12/04 12:06:40;;;;;;;24.72;21.42;;;;;;;6.42;56.20;99946.05;1685727;85;21444;-68
2021/12/04 12:09:15;;;;;;;27.17;22.90;;;;;;;6.59;56.93;99945.73;1680271;85;21074;-68
2021/12/04 12:11:52;;;;;;;23.05;19.00;;;;;;;6.83;56.77;99941.36;1677669;85;21569;-68
2021/12/04 12:14:46;;;;;;;22.82;17.55;;;;;;;6.93;56.22;99940.23;1660840;85;21029;-68
2021/12/04 12:17:10;;;;;;;25.60;18.48;;;;;;;7.00;55.67;99943.27;1650231;85;21033;-69
2021/12/04 12:19:44;;;;;;;22.58;17.12;;;;;;;7.01;55.73;99947.10;1727471;82;21592;-69
2021/12/04 12:22:21;;;;;;;20.43;15.72;;;;;;;7.10;55.87;99952.17;1746845;82;21080;-69
2021/12/04 12:27:38;;;;;;;20.60;16.02;;;;;;;7.21;55.19;99948.77;1751037;82;20977;-68
2021/12/04 12:36:17;;;;;;;22.50;16.90;;;;;;;7.10;54.80;99947.75;1750286;81;20961;-68
2021/12/04 12:39:04;;;;;;;18.98;15.18;;;;;;;7.12;55.25;99950.27;1734855;81;21049;-68
2021/12/04 12:41:42;;;;;;;20.40;15.05;;;;;;;7.13;55.47;99951.47;1705880;84;20997;-68
2021/12/04 12:44:18;;;;;;;24.10;16.70;;;;;;;7.25;55.00;99951.56;1741702;81;20980;-68
2021/12/04 12:46:58;;;;;;;22.20;16.32;;;;;;;7.29;54.85;99949.89;1725630;83;20985;-69
2021/12/04 12:49:39;;;;;;;18.48;14.65;;;;;;;7.23;54.43;99949.02;1710456;83;20968;-68
2021/12/04 12:52:28;;;;;;;20.40;15.28;;;;;;;7.17;54.70;99949.48;1726560;81;22232;-68
2021/12/04 12:55:00;;;;;;;25.27;15.90;;;;;;;7.16;54.61;99943.86;1725646;83;20992;-68
2021/12/04 12:57:32;;;;;;;22.62;15.50;;;;;;;7.14;54.54;99941.35;1752124;82;21059;-68
2021/12/04 13:11:48;;;;;;;20.75;15.53;;;;;;;6.69;54.92;99952.02;1752379;82;21015;-68
2021/12/04 13:14:21;;;;;;;19.30;14.68;;;;;;;6.57;54.99;99958.96;1752420;82;21408;-68
2021/12/04 13:17:15;;;;;;;21.50;15.23;;;;;;;6.43;55.03;99962.16;1752345;81;21012;-68
2021/12/04 13:19:47;;;;;;;17.85;14.65;;;;;;;6.27;55.16;99963.66;1745572;82;21815;-69
2021/12/04 13:22:19;;;;;;;24.23;14.87;;;;;;;6.07;55.41;99963.70;1691433;82;21427;-69
2021/12/04 13:24:48;;;;;;;21.02;14.83;;;;;;;5.89;55.52;99959.22;1728228;82;21028;-69
2021/12/04 13:29:49;;;;;;;21.00;15.30;;;;;;;5.48;55.89;99960.60;1716040;83;20973;-67
2021/12/04 13:32:20;;;;;;;20.85;15.95;;;;;;;5.23;56.17;99959.21;1715077;83;21896;-67
2021/12/04 13:34:47;;;;;;;22.30;17.82;;;;;;;4.98;56.61;99956.83;1715819;83;21048;-68
2021/12/04 13:37:13;;;;;;;23.12;18.35;;;;;;;4.80;57.16;99960.12;1704882;83;21018;-68
2021/12/04 13:39:42;;;;;;;26.30;18.90;;;;;;;4.68;57.53;99969.20;1702318;83;21418;-68
2021/12/04 13:42:09;;;;;;;27.00;19.60;;;;;;;4.55;57.84;99965.20;1691792;83;21015;-69
2021/12/04 13:44:35;;;;;;;27.93;20.23;;;;;;;4.41;58.12;99969.10;1696216;84;21812;-68
2021/12/04 13:47:05;;;;;;;31.93;23.90;;;;;;;4.23;58.44;99965.34;1663943;85;21861;-68
2021/12/04 13:49:44;;;;;;;36.83;25.35;;;;;;;4.06;58.70;99962.08;1664997;85;21012;-68
2021/12/04 13:52:13;;;;;;;38.65;27.58;;;;;;;3.92;58.92;99954.56;1664592;86;21096;-68
2021/12/04 13:54:47;;;;;;;36.88;26.30;;;;;;;3.72;59.14;99956.19;1685812;84;21105;-68
2021/12/04 13:57:14;;;;;;;37.20;25.37;;;;;;;3.56;59.48;99952.77;1694920;84;21835;-68
2021/12/04 13:59:41;;;;;;;34.08;23.05;;;;;;;3.40;59.87;99951.05;1700387;83;21464;-68
2021/12/04 14:02:23;;;;;;;32.83;23.87;;;;;;;3.27;60.15;99954.41;1697422;83;21029;-68
2021/12/04 14:05:07;;;;;;;30.45;21.90;;;;;;;3.15;60.38;99957.25;1693306;83;21000;-68
2021/12/04 14:07:33;;;;;;;35.00;22.73;;;;;;;3.00;60.72;99955.05;1715848;83;20923;-68
2021/12/04 14:10:16;;;;;;;31.73;22.85;;;;;;;2.82;60.96;99952.12;1715854;82;21783;-68
2021/12/04 14:12:45;;;;;;;32.63;22.77;;;;;;;2.69;61.21;99954.53;1715810;82;21081;-68
2021/12/04 14:15:14;;;;;;;43.78;22.77;;;;;;;2.52;61.51;99958.53;1715777;82;20974;-67
2021/12/04 14:17:41;;;;;;;36.00;23.18;;;;;;;2.35;61.71;99957.26;1688324;83;21433;-67
2021/12/04 14:20:09;;;;;;;31.48;23.83;;;;;;;2.19;61.93;99955.44;1724834;81;21089;-68
2021/12/04 14:22:46;;;;;;;29.50;22.45;;;;;;;2.06;62.13;99954.39;1752314;82;21866;-67
2021/12/04 14:25:12;;;;;;;33.55;23.57;;;;;;;1.93;62.32;99954.18;1752820;80;21067;-68
2021/12/04 14:27:39;;;;;;;31.25;23.57;;;;;;;1.78;62.58;99947.13;1724457;80;21018;-68
2021/12/04 14:30:13;;;;;;;33.05;24.20;;;;;;;1.67;62.81;99947.66;1699252;83;20999;-67
2021/12/04 14:32:42;;;;;;;36.58;24.37;;;;;;;1.56;63.10;99947.36;1711705;82;21482;-67
2021/12/04 14:35:15;;;;;;;35.33;24.27;;;;;;;1.48;63.39;99946.05;1714192;82;21916;-69
2021/12/04 14:37:49;;;;;;;34.20;23.83;;;;;;;1.38;63.53;99945.19;1693640;82;21026;-68
2021/12/04 14:40:18;;;;;;;;;;;;;;;1.28;63.73;99944.41;1754748;80;21391;-70